Airfield :
LOGIN :

Register | Disclaimer

   EN    FR    IT 

 










Legend :    VFR   Marginal VFR   IFR   Intensive IFR   Very Intensive IFR
Visi :
Ceiling :
>= 8 km
>= 3000ft
5 to 8 km
1000 to 3000 ft
1500m to 5 km
500 to 1000 ft
800 to 1500m
200 to 500 ft
< 800m
< 200 ft
Symbols :   Thunderstorms  Fog  Heavy snow  Heavy precipitations  Wind > 20 kt
SIGMETs :     Misc.  Thunderstorms  Icing  Turbulence  Mountain Waves  Volcanic Ashes







- Airport Elevation : 526 ft
- IATA code : LTN
- Download approach charts


EGGW - London Luton

CURRENT METAR :
  • 241320Z AUTO 13009KT 110V170 9999 NCD 20/10 Q1019

EXPIRED METARs :
  • 241250Z AUTO 14010KT 9999 NCD 20/10 Q1019
  • 241220Z AUTO 15009KT 090V200 9999 NCD 20/10 Q1019
  • 241150Z 13010KT CAVOK 20/11 Q1019
  • 241120Z AUTO 14011KT 9999 NCD 19/11 Q1019
  • 241050Z AUTO 14010KT 120V180 9999 NCD 19/11 Q1020

TAF TAF EGGW
Valid from the 24 at 12:00 until the 25 at 12:00 UTC


241102Z 2412/2512 15012KT CAVOK
PROB40
TEMPO 2417/2501 9000 -RA BKN040
BECMG 2501/2504 VRB03KT 6000 -RA FEW010 BKN035
TEMPO 2503/2512 RA
PROB30
TEMPO 2505/2512 3000 RADZ BR BKN005
ATIS : +44 1582 395 204
No reported NOTAMs for that airfield.



MET'MAP, your aeronautical weather chart ! - Copyright ORBIFLY December 2007 - Disclaimer

ORBIFLY MET'MAP TEAM :

Programming & Development : Alexandra Zaïnal
Concept & Development : Baudouin d'Aumeries
Co-Development & Prog : Marc-Olivier Méhu
Technical & hardware support : Manuel Goepfert

Contact : metmap@orbifly.com




SOURCES & CREDITS :

   NOAA